Terminal Aerodrome Forecast
Issued by NWS

Home | Current Version | Previous Version | Text Only | Print | Product List | Glossary On
Versions: 1 2 3 4 5 6 7 8 9 10 11 12 13 14
000
FTUS44 KLZK 241300 AAA
TAFLIT
TAF AMD
KLIT 241329Z 2413/2512 16008G18KT P6SM VCSH BKN020 OVC040
     FM241600 17010G18KT P6SM VCSH SCT025 OVC050
      TEMPO 2419/2423 5SM -TSRA BR BKN025CB OVC040
     FM242300 17008G16KT P6SM VCTS SCT020 OVC040CB
      TEMPO 2423/2503 4SM -TSRA BR BKN025CB OVC040
     FM250300 18008KT P6SM -TSRA BKN020CB OVC040=

USA.gov is the U.S. government's official web portal to all federal, state and local government web resources and services.